Weather History for K2C8 - January, 2013

Change the Weather History Date:

Thursday, January 10, 2013

  Actual Average (KGAF) Record (KGAF)
Temperature  
Mean Temperature 30 °F -  
Max Temperature 37 °F 10 °F 50 °F (1990)
Min Temperature 23 °F -9 °F -34 °F (1974)
Degree Days  
Heating Degree Days 35    
Moisture  
Dew Point 26 °F    
Average Humidity 88    
Maximum Humidity 100    
Minimum Humidity 75    
Precipitation  
Precipitation 0.00 in - - ()
Sea Level Pressure  
Sea Level Pressure 29.70 in    
Wind  
Wind Speed 16 mph (South)    
Max Wind Speed 21 mph    
Max Gust Speed 26 mph    
Visibility 10 miles    
Events      
Averages and records for this station are not official NWS values.
T = Trace of Precipitation, MM = Missing Value Source: NWS Daily Summary

Daily Weather History Graph

Daily Weather History Graph

Search for Another Location

Airport or City:

Trip Planner

Search our weather history database for the weather conditions in past years. The results will help you decide how hot, cold, wet, or windy it might be!

Date:

Astronomy

Jan. 10, 2013 Rise Set
Actual Time 8:21 AM CST 4:55 PM CST
Civil Twilight 7:44 AM CST 5:31 PM CST
Nautical Twilight 7:05 AM CST 6:11 PM CST
Astronomical Twilight 6:27 AM CST 6:49 PM CST
Moon 7:01 AM CST (1/10) 4:06 PM CST (1/10)
Length of Visible Light 9h 46m
Length of Day
8h 34m
Waning Crescent, 2% of the Moon is Illuminated
Jan 10
Waning Crescent
Jan 11
New
Jan 18
First Quarter
Jan 26
Full
Feb 3
Last Quarter

Hourly Weather History & Observations

Time (CST) Temp. Windchill Dew Point Humidity Pressure Visibility Wind Dir Wind Speed Gust Speed Precip Events Conditions
12:15 AM 23.0 °F 8.7 °F 19.4 °F 86% 29.92 in 10.0 mi South 18.4 mph - N/A   Clear
12:35 AM 23.0 °F 9.2 °F 19.4 °F 86% 29.91 in 10.0 mi South 17.3 mph 23.0 mph N/A   Clear
12:55 AM 23.0 °F 9.2 °F 19.4 °F 86% 29.90 in 10.0 mi South 17.3 mph - N/A   Clear
2:35 AM 23.0 °F 8.3 °F 21.2 °F 93% 29.88 in 10.0 mi South 19.6 mph - N/A   Clear
2:55 AM 24.8 °F 10.3 °F 21.2 °F 86% 29.86 in 10.0 mi South 20.7 mph 26.5 mph N/A   Clear
3:15 AM 24.8 °F 10.3 °F 21.2 °F 86% 29.85 in 10.0 mi South 20.7 mph 25.3 mph N/A   Clear
3:35 AM 24.8 °F 10.7 °F 23.0 °F 93% 29.84 in 10.0 mi South 19.6 mph 24.2 mph N/A   Clear
3:55 AM 24.8 °F 10.3 °F 23.0 °F 93% 29.81 in 10.0 mi South 20.7 mph 24.2 mph N/A   Clear
4:15 AM 24.8 °F 10.7 °F 23.0 °F 93% 29.81 in 10.0 mi South 19.6 mph 26.5 mph N/A   Clear
4:35 AM 24.8 °F 10.7 °F 23.0 °F 93% 29.80 in 10.0 mi South 19.6 mph 25.3 mph N/A   Clear
4:55 AM 24.8 °F 11.5 °F 23.0 °F 93% 29.80 in 10.0 mi South 17.3 mph 21.9 mph N/A   Clear
5:15 AM 24.8 °F 10.7 °F 23.0 °F 93% 29.78 in 10.0 mi South 19.6 mph 25.3 mph N/A   Clear
5:35 AM 24.8 °F 11.9 °F 23.0 °F 93% 29.76 in 10.0 mi South 16.1 mph - N/A   Clear
5:55 AM 24.8 °F 11.9 °F 23.0 °F 93% 29.75 in 10.0 mi South 16.1 mph - N/A   Clear
6:35 AM 24.8 °F 11.5 °F 23.0 °F 93% 29.74 in 10.0 mi South 17.3 mph 21.9 mph N/A   Clear
6:55 AM 24.8 °F 12.4 °F 23.0 °F 93% 29.74 in 10.0 mi South 15.0 mph - N/A   Clear
7:15 AM 24.8 °F 11.9 °F 23.0 °F 93% 29.72 in 10.0 mi South 16.1 mph - N/A   Clear
7:55 AM 24.8 °F 10.7 °F 23.0 °F 93% 29.70 in 10.0 mi South 19.6 mph - N/A   Clear
8:15 AM 26.6 °F 13.8 °F 23.0 °F 86% 29.69 in 10.0 mi South 17.3 mph - N/A   Clear
8:35 AM 26.6 °F 14.3 °F 24.8 °F 93% 29.69 in 10.0 mi South 16.1 mph - N/A   Clear
8:55 AM 26.6 °F 16.2 °F 24.8 °F 93% 29.69 in 10.0 mi South 11.5 mph - N/A   Clear
9:15 AM 26.6 °F 15.2 °F 24.8 °F 93% 29.70 in 10.0 mi South 13.8 mph - N/A   Clear
9:35 AM 28.4 °F 17.0 °F 24.8 °F 86% 29.69 in 10.0 mi South 15.0 mph - N/A   Clear
9:55 AM 28.4 °F 17.5 °F 26.6 °F 93% 29.69 in 10.0 mi South 13.8 mph - N/A   Clear
10:15 AM 30.2 °F 20.2 °F 26.6 °F 86% 29.69 in 10.0 mi South 12.7 mph - N/A   Clear
10:35 AM 32.0 °F 22.1 °F 26.6 °F 80% 29.69 in 10.0 mi South 13.8 mph - N/A   Clear
10:55 AM 32.0 °F 22.1 °F 28.4 °F 87% 29.70 in 10.0 mi South 13.8 mph - N/A   Clear
11:15 AM 33.8 °F 24.8 °F 28.4 °F 81% 29.69 in 10.0 mi South 12.7 mph - N/A   Clear
11:35 AM 35.6 °F 26.6 °F 30.2 °F 81% 29.69 in 10.0 mi South 13.8 mph - N/A   Clear
11:55 AM 37.4 °F 28.2 °F 30.2 °F 75% 29.69 in 10.0 mi South 16.1 mph - N/A   Clear
12:15 PM 37.4 °F 28.2 °F 30.2 °F 75% 29.68 in 10.0 mi South 16.1 mph - N/A   Clear
12:35 PM 37.4 °F 28.2 °F 30.2 °F 75% 29.67 in 10.0 mi South 16.1 mph - N/A   Clear
12:55 PM 37.4 °F 28.9 °F 30.2 °F 75% 29.66 in 10.0 mi South 13.8 mph - N/A   Clear
1:15 PM 37.4 °F 28.5 °F 32.0 °F 81% 29.66 in 10.0 mi South 15.0 mph - N/A   Clear
1:35 PM 37.4 °F 28.2 °F 30.2 °F 75% 29.64 in 10.0 mi South 16.1 mph - N/A   Clear
1:55 PM 37.4 °F 28.5 °F 30.2 °F 75% 29.65 in 10.0 mi South 15.0 mph - N/A   Clear
2:15 PM 37.4 °F 27.2 °F 30.2 °F 75% 29.64 in 10.0 mi South 19.6 mph 24.2 mph N/A   Clear
2:35 PM 37.4 °F 27.8 °F 30.2 °F 75% 29.64 in 10.0 mi South 17.3 mph - N/A   Clear
2:55 PM 37.4 °F 28.9 °F 30.2 °F 75% 29.65 in 10.0 mi South 13.8 mph - N/A   Clear
3:15 PM 37.4 °F 30.3 °F 30.2 °F 75% 29.65 in 10.0 mi South 10.4 mph - N/A   Clear
3:35 PM 37.4 °F 32.8 °F 30.2 °F 75% 29.66 in 10.0 mi SSE 5.8 mph - N/A   Clear
3:55 PM 37.4 °F 29.8 °F 30.2 °F 75% 29.66 in 10.0 mi South 11.5 mph 17.3 mph N/A   Clear
4:15 PM 37.4 °F 33.8 °F 30.2 °F 75% 29.66 in 10.0 mi SSE 4.6 mph - N/A   Clear
4:35 PM 37.4 °F 34.9 °F 30.2 °F 75% 29.65 in 10.0 mi SSE 3.5 mph - N/A   Clear
4:55 PM 35.6 °F 32.8 °F 30.2 °F 81% 29.65 in 9.0 mi ESE 3.5 mph - N/A   Clear
5:15 PM 33.8 °F 30.8 °F 30.2 °F 87% 29.65 in 10.0 mi ESE 3.5 mph - N/A   Clear
5:35 PM 33.8 °F 27.7 °F 30.2 °F 87% 29.65 in 10.0 mi South 6.9 mph - N/A   Clear
5:55 PM 33.8 °F 29.6 °F 30.2 °F 87% 29.65 in 10.0 mi SSE 4.6 mph - N/A   Clear
6:15 PM 32.0 °F 27.5 °F 30.2 °F 93% 29.64 in 10.0 mi SSE 4.6 mph - N/A   Clear
6:35 PM 33.8 °F 27.0 °F 32.0 °F 93% 29.64 in 10.0 mi South 8.1 mph - N/A   Partly Cloudy
6:55 PM 35.6 °F 28.6 °F 32.0 °F 87% 29.64 in 10.0 mi South 9.2 mph - N/A   Mostly Cloudy
7:15 PM 28.4 °F 16.6 °F 26.6 °F 93% 29.64 in 10.0 mi NNW 16.1 mph 20.7 mph N/A   Overcast
7:35 PM 26.6 °F 15.2 °F 24.8 °F 93% 29.65 in 10.0 mi NNW 13.8 mph - N/A   Overcast
7:55 PM 26.6 °F 15.7 °F 24.8 °F 93% 29.64 in 10.0 mi NNW 12.7 mph - N/A   Overcast
8:15 PM 26.6 °F 15.2 °F 24.8 °F 93% 29.64 in 10.0 mi NNW 13.8 mph - N/A   Overcast
8:35 PM 24.8 °F 12.4 °F 23.0 °F 93% 29.63 in 10.0 mi NNW 15.0 mph - N/A   Overcast
8:55 PM 24.8 °F 12.4 °F 24.8 °F 100% 29.63 in 10.0 mi NNW 15.0 mph - N/A   Overcast
9:15 PM 24.8 °F 11.9 °F 24.8 °F 100% 29.63 in 10.0 mi North 16.1 mph - N/A   Overcast
9:35 PM 24.8 °F 13.4 °F 24.8 °F 100% 29.62 in 10.0 mi North 12.7 mph - N/A   Mostly Cloudy
9:55 PM 24.8 °F 12.9 °F 24.8 °F 100% 29.61 in 10.0 mi NNW 13.8 mph - N/A   Mostly Cloudy
10:15 PM 24.8 °F 16.1 °F 24.8 °F 100% 29.62 in 9.0 mi North 8.1 mph - N/A   Overcast
10:35 PM 24.8 °F 12.9 °F 24.8 °F 100% 29.62 in 9.0 mi North 13.8 mph - N/A   Overcast
10:55 PM 26.6 °F 15.2 °F 24.8 °F 93% 29.61 in 10.0 mi NNW 13.8 mph - N/A   Overcast
11:15 PM 26.6 °F 15.2 °F 24.8 °F 93% 29.61 in 9.0 mi North 13.8 mph - N/A   Overcast
11:35 PM 24.8 °F 11.5 °F 23.0 °F 93% 29.61 in 9.0 mi North 17.3 mph 23.0 mph N/A   Overcast
11:55 PM 23.0 °F 9.2 °F 23.0 °F 100% 29.61 in 2.0 mi North 17.3 mph 24.2 mph N/A   Overcast